sensor_id;sensor_type;location;lat;lon;timestamp;temperature;humidity
11005;DHT22;5555;59.622;16.556;2022-10-16T00:00:36;11.90;99.90
11005;DHT22;5555;59.622;16.556;2022-10-16T00:03:03;11.90;99.90
11005;DHT22;5555;59.622;16.556;2022-10-16T00:05:29;11.90;99.90
11005;DHT22;5555;59.622;16.556;2022-10-16T00:07:54;11.90;99.90
11005;DHT22;5555;59.622;16.556;2022-10-16T00:10:20;11.90;99.90
11005;DHT22;5555;59.622;16.556;2022-10-16T00:12:46;11.90;99.90
11005;DHT22;5555;59.622;16.556;2022-10-16T00:15:12;11.90;99.90
11005;DHT22;5555;59.622;16.556;2022-10-16T00:17:38;11.90;99.90
11005;DHT22;5555;59.622;16.556;2022-10-16T00:20:04;11.90;99.90
11005;DHT22;5555;59.622;16.556;2022-10-16T00:22:30;11.90;99.90
11005;DHT22;5555;59.622;16.556;2022-10-16T00:24:55;11.90;99.90
11005;DHT22;5555;59.622;16.556;2022-10-16T00:27:21;12.00;99.90
11005;DHT22;5555;59.622;16.556;2022-10-16T00:29:51;11.90;99.90
11005;DHT22;5555;59.622;16.556;2022-10-16T00:32:17;11.90;99.90
11005;DHT22;5555;59.622;16.556;2022-10-16T00:34:43;11.90;99.90
11005;DHT22;5555;59.622;16.556;2022-10-16T00:37:09;11.90;99.90
11005;DHT22;5555;59.622;16.556;2022-10-16T00:39:34;11.90;99.90
11005;DHT22;5555;59.622;16.556;2022-10-16T00:42:00;11.80;99.90
11005;DHT22;5555;59.622;16.556;2022-10-16T00:44:43;11.70;99.90
11005;DHT22;5555;59.622;16.556;2022-10-16T00:47:20;11.70;99.90
11005;DHT22;5555;59.622;16.556;2022-10-16T00:49:47;11.70;99.90
11005;DHT22;5555;59.622;16.556;2022-10-16T00:52:14;11.70;99.90
11005;DHT22;5555;59.622;16.556;2022-10-16T00:54:40;11.70;99.90
11005;DHT22;5555;59.622;16.556;2022-10-16T00:57:07;11.70;99.90
11005;DHT22;5555;59.622;16.556;2022-10-16T00:59:36;11.80;99.90
11005;DHT22;5555;59.622;16.556;2022-10-16T01:02:04;11.70;99.90
11005;DHT22;5555;59.622;16.556;2022-10-16T01:04:50;11.70;99.90
11005;DHT22;5555;59.622;16.556;2022-10-16T01:07:27;11.80;99.90
11005;DHT22;5555;59.622;16.556;2022-10-16T01:10:09;11.70;99.90
11005;DHT22;5555;59.622;16.556;2022-10-16T01:18:09;11.70;99.90
11005;DHT22;5555;59.622;16.556;2022-10-16T01:20:58;11.70;99.90
11005;DHT22;5555;59.622;16.556;2022-10-16T01:31:18;11.80;99.90
11005;DHT22;5555;59.622;16.556;2022-10-16T01:33:47;11.90;99.90
11005;DHT22;5555;59.622;16.556;2022-10-16T01:36:21;11.80;99.90
11005;DHT22;5555;59.622;16.556;2022-10-16T01:38:49;11.90;99.90
11005;DHT22;5555;59.622;16.556;2022-10-16T01:41:33;11.90;99.90
11005;DHT22;5555;59.622;16.556;2022-10-16T01:44:16;11.90;99.90
11005;DHT22;5555;59.622;16.556;2022-10-16T01:46:46;11.90;99.90
11005;DHT22;5555;59.622;16.556;2022-10-16T01:49:13;11.90;99.90
11005;DHT22;5555;59.622;16.556;2022-10-16T01:51:39;12.00;99.90
11005;DHT22;5555;59.622;16.556;2022-10-16T01:54:08;12.00;99.90
11005;DHT22;5555;59.622;16.556;2022-10-16T01:56:35;12.00;99.90
11005;DHT22;5555;59.622;16.556;2022-10-16T01:59:06;12.00;99.90
11005;DHT22;5555;59.622;16.556;2022-10-16T02:01:34;12.00;99.90
11005;DHT22;5555;59.622;16.556;2022-10-16T02:04:15;12.00;99.90
11005;DHT22;5555;59.622;16.556;2022-10-16T02:06:42;12.00;99.90
11005;DHT22;5555;59.622;16.556;2022-10-16T02:09:08;12.10;99.90
11005;DHT22;5555;59.622;16.556;2022-10-16T02:11:34;12.10;99.90
11005;DHT22;5555;59.622;16.556;2022-10-16T02:14:06;12.10;99.90
11005;DHT22;5555;59.622;16.556;2022-10-16T02:16:44;12.10;99.90
11005;DHT22;5555;59.622;16.556;2022-10-16T02:19:12;12.10;99.90
11005;DHT22;5555;59.622;16.556;2022-10-16T02:22:05;12.10;99.90
11005;DHT22;5555;59.622;16.556;2022-10-16T02:25:02;12.00;99.90
11005;DHT22;5555;59.622;16.556;2022-10-16T02:30:22;11.90;99.90
11005;DHT22;5555;59.622;16.556;2022-10-16T02:32:51;11.80;99.90
11005;DHT22;5555;59.622;16.556;2022-10-16T02:35:20;11.80;99.90
11005;DHT22;5555;59.622;16.556;2022-10-16T02:37:48;11.80;99.90
11005;DHT22;5555;59.622;16.556;2022-10-16T02:40:15;11.80;99.90
11005;DHT22;5555;59.622;16.556;2022-10-16T02:42:41;11.80;99.90
11005;DHT22;5555;59.622;16.556;2022-10-16T02:45:09;11.80;99.90
11005;DHT22;5555;59.622;16.556;2022-10-16T02:47:35;11.70;99.90
11005;DHT22;5555;59.622;16.556;2022-10-16T02:50:00;11.70;99.90
11005;DHT22;5555;59.622;16.556;2022-10-16T02:52:26;11.70;99.90
11005;DHT22;5555;59.622;16.556;2022-10-16T02:54:52;11.70;99.90
11005;DHT22;5555;59.622;16.556;2022-10-16T02:57:18;11.70;99.90
11005;DHT22;5555;59.622;16.556;2022-10-16T02:59:44;11.70;99.90
11005;DHT22;5555;59.622;16.556;2022-10-16T03:02:10;11.60;99.90
11005;DHT22;5555;59.622;16.556;2022-10-16T03:04:36;11.60;99.90
11005;DHT22;5555;59.622;16.556;2022-10-16T03:07:02;11.60;99.90
11005;DHT22;5555;59.622;16.556;2022-10-16T03:09:28;11.60;99.90
11005;DHT22;5555;59.622;16.556;2022-10-16T03:11:54;11.60;99.90
11005;DHT22;5555;59.622;16.556;2022-10-16T03:14:20;11.50;99.90
11005;DHT22;5555;59.622;16.556;2022-10-16T03:16:45;11.40;99.90
11005;DHT22;5555;59.622;16.556;2022-10-16T03:19:11;11.40;99.90
11005;DHT22;5555;59.622;16.556;2022-10-16T03:21:37;11.30;99.90
11005;DHT22;5555;59.622;16.556;2022-10-16T03:24:02;11.30;99.90
11005;DHT22;5555;59.622;16.556;2022-10-16T03:26:28;11.20;99.90
11005;DHT22;5555;59.622;16.556;2022-10-16T03:28:54;11.10;99.90
11005;DHT22;5555;59.622;16.556;2022-10-16T03:31:19;11.00;99.90
11005;DHT22;5555;59.622;16.556;2022-10-16T03:33:45;11.00;99.90
11005;DHT22;5555;59.622;16.556;2022-10-16T03:36:11;10.90;99.90
11005;DHT22;5555;59.622;16.556;2022-10-16T03:38:37;10.80;99.90
11005;DHT22;5555;59.622;16.556;2022-10-16T03:41:02;10.70;99.90
11005;DHT22;5555;59.622;16.556;2022-10-16T03:43:29;10.60;99.90
11005;DHT22;5555;59.622;16.556;2022-10-16T03:45:54;10.60;99.90
11005;DHT22;5555;59.622;16.556;2022-10-16T03:48:20;10.60;99.90
11005;DHT22;5555;59.622;16.556;2022-10-16T03:50:46;10.60;99.90
11005;DHT22;5555;59.622;16.556;2022-10-16T03:53:14;10.70;99.90
11005;DHT22;5555;59.622;16.556;2022-10-16T03:55:41;10.70;99.90
11005;DHT22;5555;59.622;16.556;2022-10-16T03:58:07;10.70;99.90
11005;DHT22;5555;59.622;16.556;2022-10-16T04:00:33;10.80;99.90
11005;DHT22;5555;59.622;16.556;2022-10-16T04:02:59;10.90;99.90
11005;DHT22;5555;59.622;16.556;2022-10-16T04:05:25;10.90;99.90
11005;DHT22;5555;59.622;16.556;2022-10-16T04:07:51;10.90;99.90
11005;DHT22;5555;59.622;16.556;2022-10-16T04:10:16;10.90;99.90
11005;DHT22;5555;59.622;16.556;2022-10-16T04:12:42;10.90;99.90
11005;DHT22;5555;59.622;16.556;2022-10-16T04:15:08;10.90;99.90
11005;DHT22;5555;59.622;16.556;2022-10-16T04:17:34;10.90;99.90
11005;DHT22;5555;59.622;16.556;2022-10-16T04:19:59;10.90;99.90
11005;DHT22;5555;59.622;16.556;2022-10-16T04:22:25;11.00;99.90
11005;DHT22;5555;59.622;16.556;2022-10-16T04:24:50;11.00;99.90
11005;DHT22;5555;59.622;16.556;2022-10-16T04:27:16;11.00;99.90
11005;DHT22;5555;59.622;16.556;2022-10-16T04:29:42;10.90;99.90
11005;DHT22;5555;59.622;16.556;2022-10-16T04:32:10;10.90;99.90
11005;DHT22;5555;59.622;16.556;2022-10-16T04:34:36;11.00;99.90
11005;DHT22;5555;59.622;16.556;2022-10-16T04:37:04;10.90;99.90
11005;DHT22;5555;59.622;16.556;2022-10-16T04:39:30;11.00;99.90
11005;DHT22;5555;59.622;16.556;2022-10-16T04:41:55;11.00;99.90
11005;DHT22;5555;59.622;16.556;2022-10-16T04:44:21;11.00;99.90
11005;DHT22;5555;59.622;16.556;2022-10-16T04:46:49;11.00;99.90
11005;DHT22;5555;59.622;16.556;2022-10-16T04:49:15;11.00;99.90
11005;DHT22;5555;59.622;16.556;2022-10-16T04:51:40;11.00;99.90
11005;DHT22;5555;59.622;16.556;2022-10-16T04:54:06;11.00;99.90
11005;DHT22;5555;59.622;16.556;2022-10-16T04:56:32;11.00;99.90
11005;DHT22;5555;59.622;16.556;2022-10-16T04:58:57;10.90;99.90
11005;DHT22;5555;59.622;16.556;2022-10-16T05:01:23;11.00;99.90
11005;DHT22;5555;59.622;16.556;2022-10-16T05:03:49;11.00;99.90
11005;DHT22;5555;59.622;16.556;2022-10-16T05:06:14;11.00;99.90
11005;DHT22;5555;59.622;16.556;2022-10-16T05:08:40;11.10;99.90
11005;DHT22;5555;59.622;16.556;2022-10-16T05:11:05;11.20;99.90
11005;DHT22;5555;59.622;16.556;2022-10-16T05:13:31;11.20;99.90
11005;DHT22;5555;59.622;16.556;2022-10-16T05:15:57;11.20;99.90
11005;DHT22;5555;59.622;16.556;2022-10-16T05:18:22;11.20;99.90
11005;DHT22;5555;59.622;16.556;2022-10-16T05:20:48;11.20;99.90
11005;DHT22;5555;59.622;16.556;2022-10-16T05:23:13;11.30;99.90
11005;DHT22;5555;59.622;16.556;2022-10-16T05:25:39;11.30;99.90
11005;DHT22;5555;59.622;16.556;2022-10-16T05:28:05;11.30;99.90
11005;DHT22;5555;59.622;16.556;2022-10-16T05:30:30;11.40;99.90
11005;DHT22;5555;59.622;16.556;2022-10-16T05:32:56;11.40;99.90
11005;DHT22;5555;59.622;16.556;2022-10-16T05:35:22;11.40;99.90
11005;DHT22;5555;59.622;16.556;2022-10-16T05:37:47;11.40;99.90
11005;DHT22;5555;59.622;16.556;2022-10-16T05:40:14;11.50;99.90
11005;DHT22;5555;59.622;16.556;2022-10-16T05:42:40;11.50;99.90
11005;DHT22;5555;59.622;16.556;2022-10-16T05:45:06;11.50;99.90
11005;DHT22;5555;59.622;16.556;2022-10-16T05:47:33;11.60;99.90
11005;DHT22;5555;59.622;16.556;2022-10-16T05:49:59;11.60;99.90
11005;DHT22;5555;59.622;16.556;2022-10-16T05:52:26;11.50;99.90
11005;DHT22;5555;59.622;16.556;2022-10-16T05:54:51;11.50;99.90
11005;DHT22;5555;59.622;16.556;2022-10-16T05:57:17;11.50;99.90
11005;DHT22;5555;59.622;16.556;2022-10-16T05:59:43;11.50;99.90
11005;DHT22;5555;59.622;16.556;2022-10-16T06:02:12;11.50;99.90
11005;DHT22;5555;59.622;16.556;2022-10-16T06:04:38;11.60;99.90
11005;DHT22;5555;59.622;16.556;2022-10-16T06:07:04;11.60;99.90
11005;DHT22;5555;59.622;16.556;2022-10-16T06:09:29;11.60;99.90
11005;DHT22;5555;59.622;16.556;2022-10-16T06:11:55;11.60;99.90
11005;DHT22;5555;59.622;16.556;2022-10-16T06:14:21;11.60;99.90
11005;DHT22;5555;59.622;16.556;2022-10-16T06:16:46;11.60;99.90
11005;DHT22;5555;59.622;16.556;2022-10-16T06:19:12;11.70;99.90
11005;DHT22;5555;59.622;16.556;2022-10-16T06:21:37;11.70;99.90
11005;DHT22;5555;59.622;16.556;2022-10-16T06:24:03;11.70;99.90
11005;DHT22;5555;59.622;16.556;2022-10-16T06:26:31;11.70;99.90
11005;DHT22;5555;59.622;16.556;2022-10-16T06:28:58;11.80;99.90
11005;DHT22;5555;59.622;16.556;2022-10-16T06:31:25;11.90;99.90
11005;DHT22;5555;59.622;16.556;2022-10-16T06:33:54;12.10;99.90
11005;DHT22;5555;59.622;16.556;2022-10-16T06:36:20;12.20;99.90
11005;DHT22;5555;59.622;16.556;2022-10-16T06:38:46;12.30;99.90
11005;DHT22;5555;59.622;16.556;2022-10-16T06:41:14;12.30;99.90
11005;DHT22;5555;59.622;16.556;2022-10-16T06:43:41;12.40;99.90
11005;DHT22;5555;59.622;16.556;2022-10-16T06:46:09;12.40;99.90
11005;DHT22;5555;59.622;16.556;2022-10-16T06:48:35;12.40;99.90
11005;DHT22;5555;59.622;16.556;2022-10-16T06:51:04;12.40;99.90
11005;DHT22;5555;59.622;16.556;2022-10-16T06:53:33;12.40;99.90
11005;DHT22;5555;59.622;16.556;2022-10-16T06:56:11;12.30;99.90
11005;DHT22;5555;59.622;16.556;2022-10-16T06:58:37;12.30;99.90
11005;DHT22;5555;59.622;16.556;2022-10-16T07:01:03;12.30;99.90
11005;DHT22;5555;59.622;16.556;2022-10-16T07:03:29;12.40;99.90
11005;DHT22;5555;59.622;16.556;2022-10-16T07:05:55;12.50;99.90
11005;DHT22;5555;59.622;16.556;2022-10-16T07:08:21;12.60;99.90
11005;DHT22;5555;59.622;16.556;2022-10-16T07:10:46;12.60;99.90
11005;DHT22;5555;59.622;16.556;2022-10-16T07:13:12;12.70;99.90
11005;DHT22;5555;59.622;16.556;2022-10-16T07:15:40;12.80;99.90
11005;DHT22;5555;59.622;16.556;2022-10-16T07:18:06;12.80;99.90
11005;DHT22;5555;59.622;16.556;2022-10-16T07:20:32;12.80;99.90
11005;DHT22;5555;59.622;16.556;2022-10-16T07:22:58;12.90;99.90
11005;DHT22;5555;59.622;16.556;2022-10-16T07:25:24;12.90;99.90
11005;DHT22;5555;59.622;16.556;2022-10-16T07:27:49;12.80;99.90
11005;DHT22;5555;59.622;16.556;2022-10-16T07:30:15;12.80;99.90
11005;DHT22;5555;59.622;16.556;2022-10-16T07:32:40;12.80;99.90
11005;DHT22;5555;59.622;16.556;2022-10-16T07:35:06;12.80;99.90
11005;DHT22;5555;59.622;16.556;2022-10-16T07:37:32;12.90;99.90
11005;DHT22;5555;59.622;16.556;2022-10-16T07:39:58;13.00;99.90
11005;DHT22;5555;59.622;16.556;2022-10-16T07:42:23;13.10;99.90
11005;DHT22;5555;59.622;16.556;2022-10-16T07:44:49;13.30;99.90
11005;DHT22;5555;59.622;16.556;2022-10-16T07:47:14;13.30;99.90
11005;DHT22;5555;59.622;16.556;2022-10-16T07:49:40;13.40;99.90
11005;DHT22;5555;59.622;16.556;2022-10-16T07:52:06;13.40;99.90
11005;DHT22;5555;59.622;16.556;2022-10-16T07:54:31;13.50;99.90
11005;DHT22;5555;59.622;16.556;2022-10-16T07:56:57;13.60;99.90
11005;DHT22;5555;59.622;16.556;2022-10-16T07:59:22;13.50;99.90
11005;DHT22;5555;59.622;16.556;2022-10-16T08:01:49;13.40;99.90
11005;DHT22;5555;59.622;16.556;2022-10-16T08:04:15;13.50;99.90
11005;DHT22;5555;59.622;16.556;2022-10-16T08:06:40;13.50;99.90
11005;DHT22;5555;59.622;16.556;2022-10-16T08:09:07;13.50;99.90
11005;DHT22;5555;59.622;16.556;2022-10-16T08:11:33;13.40;99.90
11005;DHT22;5555;59.622;16.556;2022-10-16T08:13:59;13.30;99.90
11005;DHT22;5555;59.622;16.556;2022-10-16T08:16:25;13.20;99.90
11005;DHT22;5555;59.622;16.556;2022-10-16T08:18:51;13.20;99.90
11005;DHT22;5555;59.622;16.556;2022-10-16T08:21:20;12.90;99.90
11005;DHT22;5555;59.622;16.556;2022-10-16T08:23:45;12.90;99.90
11005;DHT22;5555;59.622;16.556;2022-10-16T08:26:12;12.90;99.90
11005;DHT22;5555;59.622;16.556;2022-10-16T08:28:38;12.80;99.90
11005;DHT22;5555;59.622;16.556;2022-10-16T08:31:12;12.80;99.90
11005;DHT22;5555;59.622;16.556;2022-10-16T08:33:40;12.80;99.90
11005;DHT22;5555;59.622;16.556;2022-10-16T08:36:06;12.90;99.90
11005;DHT22;5555;59.622;16.556;2022-10-16T08:38:33;12.90;99.90
11005;DHT22;5555;59.622;16.556;2022-10-16T08:43:55;12.50;99.90
11005;DHT22;5555;59.622;16.556;2022-10-16T08:49:12;12.50;99.90
11005;DHT22;5555;59.622;16.556;2022-10-16T08:51:41;12.70;99.90
11005;DHT22;5555;59.622;16.556;2022-10-16T08:54:29;12.90;99.90
11005;DHT22;5555;59.622;16.556;2022-10-16T08:57:00;13.00;99.90
11005;DHT22;5555;59.622;16.556;2022-10-16T08:59:26;13.20;99.90
11005;DHT22;5555;59.622;16.556;2022-10-16T09:01:52;13.40;99.90
11005;DHT22;5555;59.622;16.556;2022-10-16T09:04:52;13.40;99.90
11005;DHT22;5555;59.622;16.556;2022-10-16T09:07:32;13.30;99.90
11005;DHT22;5555;59.622;16.556;2022-10-16T09:13:00;13.10;99.90
11005;DHT22;5555;59.622;16.556;2022-10-16T09:20:43;12.90;99.90
11005;DHT22;5555;59.622;16.556;2022-10-16T09:23:27;13.10;99.90
11005;DHT22;5555;59.622;16.556;2022-10-16T09:25:54;13.20;99.90
11005;DHT22;5555;59.622;16.556;2022-10-16T09:28:20;13.30;99.90
11005;DHT22;5555;59.622;16.556;2022-10-16T09:30:47;13.50;99.90
11005;DHT22;5555;59.622;16.556;2022-10-16T09:33:18;13.50;99.90
11005;DHT22;5555;59.622;16.556;2022-10-16T09:35:49;13.60;99.90
11005;DHT22;5555;59.622;16.556;2022-10-16T09:38:30;13.70;99.90
11005;DHT22;5555;59.622;16.556;2022-10-16T09:40:58;13.70;99.90
11005;DHT22;5555;59.622;16.556;2022-10-16T09:43:33;13.60;99.90
11005;DHT22;5555;59.622;16.556;2022-10-16T09:48:39;13.10;99.90
11005;DHT22;5555;59.622;16.556;2022-10-16T09:51:13;13.30;99.90
11005;DHT22;5555;59.622;16.556;2022-10-16T09:53:43;13.50;99.90
11005;DHT22;5555;59.622;16.556;2022-10-16T09:56:11;13.60;99.90
11005;DHT22;5555;59.622;16.556;2022-10-16T09:58:42;13.60;99.90
11005;DHT22;5555;59.622;16.556;2022-10-16T10:01:14;13.80;99.90
11005;DHT22;5555;59.622;16.556;2022-10-16T10:03:43;13.90;99.90
11005;DHT22;5555;59.622;16.556;2022-10-16T10:06:25;13.80;99.90
11005;DHT22;5555;59.622;16.556;2022-10-16T10:09:05;14.10;99.90
11005;DHT22;5555;59.622;16.556;2022-10-16T10:14:06;14.40;99.90
11005;DHT22;5555;59.622;16.556;2022-10-16T10:16:34;14.20;99.90
11005;DHT22;5555;59.622;16.556;2022-10-16T10:19:00;14.50;99.90
11005;DHT22;5555;59.622;16.556;2022-10-16T10:21:26;14.40;99.90
11005;DHT22;5555;59.622;16.556;2022-10-16T10:23:57;14.10;99.90
11005;DHT22;5555;59.622;16.556;2022-10-16T10:26:25;13.80;99.90
11005;DHT22;5555;59.622;16.556;2022-10-16T10:29:22;14.00;99.90
11005;DHT22;5555;59.622;16.556;2022-10-16T10:34:43;14.50;99.90
11005;DHT22;5555;59.622;16.556;2022-10-16T10:37:45;14.70;99.90
11005;DHT22;5555;59.622;16.556;2022-10-16T10:40:40;14.40;99.90
11005;DHT22;5555;59.622;16.556;2022-10-16T10:43:28;14.30;99.90
11005;DHT22;5555;59.622;16.556;2022-10-16T10:46:03;14.40;99.90
11005;DHT22;5555;59.622;16.556;2022-10-16T10:56:57;14.30;99.90
11005;DHT22;5555;59.622;16.556;2022-10-16T11:05:40;13.80;99.90
11005;DHT22;5555;59.622;16.556;2022-10-16T11:08:20;13.80;99.90
11005;DHT22;5555;59.622;16.556;2022-10-16T11:15:48;14.10;99.90
11005;DHT22;5555;59.622;16.556;2022-10-16T11:21:08;13.80;99.90
11005;DHT22;5555;59.622;16.556;2022-10-16T11:26:23;13.70;99.90
11005;DHT22;5555;59.622;16.556;2022-10-16T11:28:54;13.70;99.90
11005;DHT22;5555;59.622;16.556;2022-10-16T11:31:40;13.90;99.90
11005;DHT22;5555;59.622;16.556;2022-10-16T11:34:47;14.00;99.90
11005;DHT22;5555;59.622;16.556;2022-10-16T11:37:37;14.00;99.90
11005;DHT22;5555;59.622;16.556;2022-10-16T11:40:31;14.20;99.90
11005;DHT22;5555;59.622;16.556;2022-10-16T11:43:06;14.30;99.90
11005;DHT22;5555;59.622;16.556;2022-10-16T11:45:43;14.40;99.90
11005;DHT22;5555;59.622;16.556;2022-10-16T11:51:13;14.30;99.90
11005;DHT22;5555;59.622;16.556;2022-10-16T11:56:17;13.80;99.90
11005;DHT22;5555;59.622;16.556;2022-10-16T11:59:03;13.80;99.90
11005;DHT22;5555;59.622;16.556;2022-10-16T12:01:42;13.70;99.90
11005;DHT22;5555;59.622;16.556;2022-10-16T12:04:23;13.70;99.90
11005;DHT22;5555;59.622;16.556;2022-10-16T12:07:02;13.80;99.90
11005;DHT22;5555;59.622;16.556;2022-10-16T12:09:30;13.80;99.90
11005;DHT22;5555;59.622;16.556;2022-10-16T12:11:56;13.90;99.90
11005;DHT22;5555;59.622;16.556;2022-10-16T12:17:26;13.80;99.90
11005;DHT22;5555;59.622;16.556;2022-10-16T12:20:12;13.90;99.90
11005;DHT22;5555;59.622;16.556;2022-10-16T12:23:03;14.00;99.90
11005;DHT22;5555;59.622;16.556;2022-10-16T12:25:40;14.00;99.90
11005;DHT22;5555;59.622;16.556;2022-10-16T12:30:42;14.00;99.90
11005;DHT22;5555;59.622;16.556;2022-10-16T12:33:32;13.90;99.90
11005;DHT22;5555;59.622;16.556;2022-10-16T12:36:02;14.20;99.90
11005;DHT22;5555;59.622;16.556;2022-10-16T12:38:38;14.20;99.90
11005;DHT22;5555;59.622;16.556;2022-10-16T12:41:11;14.00;99.90
11005;DHT22;5555;59.622;16.556;2022-10-16T12:43:41;13.90;99.90
11005;DHT22;5555;59.622;16.556;2022-10-16T12:48:34;13.80;99.90
11005;DHT22;5555;59.622;16.556;2022-10-16T12:51:23;14.00;99.90
11005;DHT22;5555;59.622;16.556;2022-10-16T12:54:00;14.40;99.90
11005;DHT22;5555;59.622;16.556;2022-10-16T12:56:45;15.50;99.90
11005;DHT22;5555;59.622;16.556;2022-10-16T12:59:34;16.60;99.90
11005;DHT22;5555;59.622;16.556;2022-10-16T13:10:33;14.50;99.90
11005;DHT22;5555;59.622;16.556;2022-10-16T13:23:58;13.80;99.90
11005;DHT22;5555;59.622;16.556;2022-10-16T13:26:39;13.70;99.90
11005;DHT22;5555;59.622;16.556;2022-10-16T13:29:06;13.60;99.90
11005;DHT22;5555;59.622;16.556;2022-10-16T13:31:32;13.50;99.90
11005;DHT22;5555;59.622;16.556;2022-10-16T13:34:00;13.30;99.90
11005;DHT22;5555;59.622;16.556;2022-10-16T13:36:28;13.30;99.90
11005;DHT22;5555;59.622;16.556;2022-10-16T13:39:11;13.20;99.90
11005;DHT22;5555;59.622;16.556;2022-10-16T13:41:37;13.20;99.90
11005;DHT22;5555;59.622;16.556;2022-10-16T13:44:04;13.20;99.90
11005;DHT22;5555;59.622;16.556;2022-10-16T13:46:30;13.20;99.90
11005;DHT22;5555;59.622;16.556;2022-10-16T13:49:05;13.20;99.90
11005;DHT22;5555;59.622;16.556;2022-10-16T13:51:32;13.10;99.90
11005;DHT22;5555;59.622;16.556;2022-10-16T13:53:58;13.10;99.90
11005;DHT22;5555;59.622;16.556;2022-10-16T13:56:29;13.00;99.90
11005;DHT22;5555;59.622;16.556;2022-10-16T13:59:03;13.00;99.90
11005;DHT22;5555;59.622;16.556;2022-10-16T14:01:49;12.90;99.90
11005;DHT22;5555;59.622;16.556;2022-10-16T14:04:16;12.90;99.90
11005;DHT22;5555;59.622;16.556;2022-10-16T14:06:44;12.90;99.90
11005;DHT22;5555;59.622;16.556;2022-10-16T14:09:30;12.80;99.90
11005;DHT22;5555;59.622;16.556;2022-10-16T14:12:06;12.70;99.90
11005;DHT22;5555;59.622;16.556;2022-10-16T14:14:44;12.70;99.90
11005;DHT22;5555;59.622;16.556;2022-10-16T14:17:24;12.60;99.90
11005;DHT22;5555;59.622;16.556;2022-10-16T14:19:54;12.70;99.90
11005;DHT22;5555;59.622;16.556;2022-10-16T14:22:35;12.70;99.90
11005;DHT22;5555;59.622;16.556;2022-10-16T14:27:56;12.50;99.90
11005;DHT22;5555;59.622;16.556;2022-10-16T14:30:22;12.50;99.90
11005;DHT22;5555;59.622;16.556;2022-10-16T14:32:58;12.50;99.90
11005;DHT22;5555;59.622;16.556;2022-10-16T14:35:36;12.70;99.90
11005;DHT22;5555;59.622;16.556;2022-10-16T14:38:03;12.80;99.90
11005;DHT22;5555;59.622;16.556;2022-10-16T14:40:33;12.70;99.90
11005;DHT22;5555;59.622;16.556;2022-10-16T14:43:00;12.70;99.90
11005;DHT22;5555;59.622;16.556;2022-10-16T14:45:32;12.60;99.90
11005;DHT22;5555;59.622;16.556;2022-10-16T14:48:17;12.40;99.90
11005;DHT22;5555;59.622;16.556;2022-10-16T14:50:43;12.40;99.90
11005;DHT22;5555;59.622;16.556;2022-10-16T14:53:11;12.20;99.90
11005;DHT22;5555;59.622;16.556;2022-10-16T14:55:38;12.00;99.90
11005;DHT22;5555;59.622;16.556;2022-10-16T14:58:04;11.90;99.90
11005;DHT22;5555;59.622;16.556;2022-10-16T15:00:30;11.90;99.90
11005;DHT22;5555;59.622;16.556;2022-10-16T15:02:56;11.80;99.90
11005;DHT22;5555;59.622;16.556;2022-10-16T15:05:26;11.80;99.90
11005;DHT22;5555;59.622;16.556;2022-10-16T15:07:53;11.70;99.90
11005;DHT22;5555;59.622;16.556;2022-10-16T15:10:21;11.70;99.90
11005;DHT22;5555;59.622;16.556;2022-10-16T15:12:47;11.70;99.90
11005;DHT22;5555;59.622;16.556;2022-10-16T15:17:55;11.60;99.90
11005;DHT22;5555;59.622;16.556;2022-10-16T15:20:23;11.60;99.90
11005;DHT22;5555;59.622;16.556;2022-10-16T15:22:49;11.50;99.90
11005;DHT22;5555;59.622;16.556;2022-10-16T15:28:17;11.40;99.90
11005;DHT22;5555;59.622;16.556;2022-10-16T15:30:44;11.30;99.90
11005;DHT22;5555;59.622;16.556;2022-10-16T15:33:19;11.30;99.90
11005;DHT22;5555;59.622;16.556;2022-10-16T15:35:48;11.20;99.90
11005;DHT22;5555;59.622;16.556;2022-10-16T15:38:16;11.20;99.90
11005;DHT22;5555;59.622;16.556;2022-10-16T15:40:42;11.20;99.90
11005;DHT22;5555;59.622;16.556;2022-10-16T15:43:08;11.10;99.90
11005;DHT22;5555;59.622;16.556;2022-10-16T15:45:34;11.10;99.90
11005;DHT22;5555;59.622;16.556;2022-10-16T15:48:00;11.00;99.90
11005;DHT22;5555;59.622;16.556;2022-10-16T15:50:26;10.90;99.90
11005;DHT22;5555;59.622;16.556;2022-10-16T15:52:52;10.70;99.90
11005;DHT22;5555;59.622;16.556;2022-10-16T15:55:17;10.60;99.90
11005;DHT22;5555;59.622;16.556;2022-10-16T15:57:44;10.50;99.90
11005;DHT22;5555;59.622;16.556;2022-10-16T16:00:13;10.30;99.90
11005;DHT22;5555;59.622;16.556;2022-10-16T16:02:40;10.20;99.90
11005;DHT22;5555;59.622;16.556;2022-10-16T16:05:07;10.00;99.90
11005;DHT22;5555;59.622;16.556;2022-10-16T16:07:37;9.90;99.90
11005;DHT22;5555;59.622;16.556;2022-10-16T16:10:06;9.80;99.90
11005;DHT22;5555;59.622;16.556;2022-10-16T16:12:33;9.80;99.90
11005;DHT22;5555;59.622;16.556;2022-10-16T16:14:59;9.70;99.90
11005;DHT22;5555;59.622;16.556;2022-10-16T16:17:24;9.60;99.90
11005;DHT22;5555;59.622;16.556;2022-10-16T16:19:50;9.60;99.90
11005;DHT22;5555;59.622;16.556;2022-10-16T16:22:17;9.60;99.90
11005;DHT22;5555;59.622;16.556;2022-10-16T16:24:42;9.50;99.90
11005;DHT22;5555;59.622;16.556;2022-10-16T16:27:08;9.50;99.90
11005;DHT22;5555;59.622;16.556;2022-10-16T16:29:34;9.50;99.90
11005;DHT22;5555;59.622;16.556;2022-10-16T16:32:00;9.40;99.90
11005;DHT22;5555;59.622;16.556;2022-10-16T16:34:27;9.30;99.90
11005;DHT22;5555;59.622;16.556;2022-10-16T16:36:54;9.30;99.90
11005;DHT22;5555;59.622;16.556;2022-10-16T16:39:20;9.30;99.90
11005;DHT22;5555;59.622;16.556;2022-10-16T16:41:46;9.20;99.90
11005;DHT22;5555;59.622;16.556;2022-10-16T16:44:13;9.20;99.90
11005;DHT22;5555;59.622;16.556;2022-10-16T16:46:39;9.10;99.90
11005;DHT22;5555;59.622;16.556;2022-10-16T16:49:06;9.10;99.90
11005;DHT22;5555;59.622;16.556;2022-10-16T16:51:32;9.10;99.90
11005;DHT22;5555;59.622;16.556;2022-10-16T16:53:58;9.00;99.90
11005;DHT22;5555;59.622;16.556;2022-10-16T16:56:25;9.00;99.90
11005;DHT22;5555;59.622;16.556;2022-10-16T16:58:54;9.00;99.90
11005;DHT22;5555;59.622;16.556;2022-10-16T17:01:21;8.90;99.90
11005;DHT22;5555;59.622;16.556;2022-10-16T17:03:48;8.90;99.90
11005;DHT22;5555;59.622;16.556;2022-10-16T17:06:15;8.90;99.90
11005;DHT22;5555;59.622;16.556;2022-10-16T17:08:42;8.90;99.90
11005;DHT22;5555;59.622;16.556;2022-10-16T17:11:13;8.90;99.90
11005;DHT22;5555;59.622;16.556;2022-10-16T17:13:40;8.80;99.90
11005;DHT22;5555;59.622;16.556;2022-10-16T17:16:06;8.90;99.90
11005;DHT22;5555;59.622;16.556;2022-10-16T17:18:33;8.90;99.90
11005;DHT22;5555;59.622;16.556;2022-10-16T17:21:00;8.80;99.90
11005;DHT22;5555;59.622;16.556;2022-10-16T17:23:26;8.90;99.90
11005;DHT22;5555;59.622;16.556;2022-10-16T17:25:53;8.80;99.90
11005;DHT22;5555;59.622;16.556;2022-10-16T17:28:18;8.90;99.90
11005;DHT22;5555;59.622;16.556;2022-10-16T17:30:44;8.90;99.90